sensor_id;sensor_type;location;lat;lon;timestamp;pressure;altitude;pressure_sealevel;temperature;humidity
19748;BME280;10032;51.386;12.516;2024-02-23T00:00:23;97277.38;;;12.77;100.00
19748;BME280;10032;51.386;12.516;2024-02-23T00:02:49;97284.41;;;12.78;100.00
19748;BME280;10032;51.386;12.516;2024-02-23T00:05:15;97281.69;;;12.78;100.00
19748;BME280;10032;51.386;12.516;2024-02-23T00:07:40;97282.00;;;12.77;100.00
19748;BME280;10032;51.386;12.516;2024-02-23T00:10:06;97279.66;;;12.75;100.00
19748;BME280;10032;51.386;12.516;2024-02-23T00:12:31;97273.84;;;12.77;100.00
19748;BME280;10032;51.386;12.516;2024-02-23T00:14:57;97275.31;;;12.74;100.00
19748;BME280;10032;51.386;12.516;2024-02-23T00:17:22;97285.97;;;12.79;100.00
19748;BME280;10032;51.386;12.516;2024-02-23T00:19:48;97306.41;;;12.85;100.00
19748;BME280;10032;51.386;12.516;2024-02-23T00:22:14;97305.28;;;12.86;100.00
19748;BME280;10032;51.386;12.516;2024-02-23T00:24:39;97315.47;;;12.89;100.00
19748;BME280;10032;51.386;12.516;2024-02-23T00:27:06;97313.22;;;12.91;100.00
19748;BME280;10032;51.386;12.516;2024-02-23T00:29:31;97319.09;;;12.93;100.00
19748;BME280;10032;51.386;12.516;2024-02-23T00:31:57;97325.50;;;12.97;100.00
19748;BME280;10032;51.386;12.516;2024-02-23T00:34:22;97325.63;;;13.01;100.00
19748;BME280;10032;51.386;12.516;2024-02-23T00:36:47;97319.53;;;13.04;100.00
19748;BME280;10032;51.386;12.516;2024-02-23T00:39:14;97329.16;;;13.01;100.00
19748;BME280;10032;51.386;12.516;2024-02-23T00:41:39;97334.59;;;13.01;100.00
19748;BME280;10032;51.386;12.516;2024-02-23T00:44:05;97340.03;;;13.01;100.00
19748;BME280;10032;51.386;12.516;2024-02-23T00:46:31;97338.41;;;13.00;100.00
19748;BME280;10032;51.386;12.516;2024-02-23T00:48:56;97349.28;;;13.00;100.00
19748;BME280;10032;51.386;12.516;2024-02-23T00:51:22;97356.31;;;13.01;100.00
19748;BME280;10032;51.386;12.516;2024-02-23T00:53:47;97364.97;;;12.95;100.00
19748;BME280;10032;51.386;12.516;2024-02-23T00:56:13;97381.16;;;12.91;100.00
19748;BME280;10032;51.386;12.516;2024-02-23T00:58:39;97386.09;;;12.89;100.00
19748;BME280;10032;51.386;12.516;2024-02-23T01:01:04;97374.47;;;12.89;100.00
19748;BME280;10032;51.386;12.516;2024-02-23T01:03:30;97393.34;;;12.85;100.00
19748;BME280;10032;51.386;12.516;2024-02-23T01:05:55;97383.94;;;12.83;100.00
19748;BME280;10032;51.386;12.516;2024-02-23T01:08:21;97396.72;;;12.82;100.00
19748;BME280;10032;51.386;12.516;2024-02-23T01:10:46;97379.63;;;12.82;100.00
19748;BME280;10032;51.386;12.516;2024-02-23T01:13:11;97373.72;;;12.80;100.00
19748;BME280;10032;51.386;12.516;2024-02-23T01:15:37;97405.06;;;12.77;100.00
19748;BME280;10032;51.386;12.516;2024-02-23T01:18:03;97414.47;;;12.80;100.00
19748;BME280;10032;51.386;12.516;2024-02-23T01:20:31;97434.50;;;12.75;100.00
19748;BME280;10032;51.386;12.516;2024-02-23T01:22:56;97455.44;;;12.75;100.00
19748;BME280;10032;51.386;12.516;2024-02-23T01:25:21;97464.84;;;12.77;100.00
19748;BME280;10032;51.386;12.516;2024-02-23T01:27:47;97478.28;;;12.74;100.00
19748;BME280;10032;51.386;12.516;2024-02-23T01:30:13;97489.47;;;12.72;100.00
19748;BME280;10032;51.386;12.516;2024-02-23T01:32:38;97507.38;;;12.73;100.00
19748;BME280;10032;51.386;12.516;2024-02-23T01:35:07;97508.50;;;12.72;100.00
19748;BME280;10032;51.386;12.516;2024-02-23T01:37:33;97513.94;;;12.72;100.00
19748;BME280;10032;51.386;12.516;2024-02-23T01:39:59;97529.78;;;12.70;100.00
19748;BME280;10032;51.386;12.516;2024-02-23T01:42:25;97522.75;;;12.69;100.00
19748;BME280;10032;51.386;12.516;2024-02-23T01:44:51;97528.03;;;12.66;100.00
19748;BME280;10032;51.386;12.516;2024-02-23T01:47:17;97550.44;;;12.63;100.00
19748;BME280;10032;51.386;12.516;2024-02-23T01:49:45;97562.59;;;12.57;100.00
19748;BME280;10032;51.386;12.516;2024-02-23T01:52:12;97571.69;;;12.52;100.00
19748;BME280;10032;51.386;12.516;2024-02-23T01:54:38;97569.16;;;12.47;100.00
19748;BME280;10032;51.386;12.516;2024-02-23T01:57:04;97583.72;;;12.43;100.00
19748;BME280;10032;51.386;12.516;2024-02-23T01:59:29;97574.31;;;12.40;100.00
19748;BME280;10032;51.386;12.516;2024-02-23T02:01:55;97580.38;;;12.37;100.00
19748;BME280;10032;51.386;12.516;2024-02-23T02:04:21;97591.59;;;12.27;100.00
19748;BME280;10032;51.386;12.516;2024-02-23T02:06:47;97593.19;;;12.28;100.00
19748;BME280;10032;51.386;12.516;2024-02-23T02:09:13;97591.91;;;12.26;100.00
19748;BME280;10032;51.386;12.516;2024-02-23T02:11:45;97596.72;;;12.20;100.00
19748;BME280;10032;51.386;12.516;2024-02-23T02:14:11;97590.97;;;12.13;100.00
19748;BME280;10032;51.386;12.516;2024-02-23T02:16:37;97586.84;;;12.07;100.00
19748;BME280;10032;51.386;12.516;2024-02-23T02:19:02;97599.28;;;12.08;100.00
19748;BME280;10032;51.386;12.516;2024-02-23T02:21:28;97608.41;;;12.04;100.00
19748;BME280;10032;51.386;12.516;2024-02-23T02:23:53;97632.66;;;12.00;100.00
19748;BME280;10032;51.386;12.516;2024-02-23T02:26:19;97626.28;;;11.96;100.00
19748;BME280;10032;51.386;12.516;2024-02-23T02:28:44;97647.50;;;11.94;100.00
19748;BME280;10032;51.386;12.516;2024-02-23T02:31:10;97644.31;;;11.92;100.00
19748;BME280;10032;51.386;12.516;2024-02-23T02:33:35;97656.28;;;11.91;100.00
19748;BME280;10032;51.386;12.516;2024-02-23T02:36:01;97667.91;;;11.83;100.00
19748;BME280;10032;51.386;12.516;2024-02-23T02:38:26;97662.03;;;11.73;100.00
19748;BME280;10032;51.386;12.516;2024-02-23T02:40:51;97667.91;;;11.66;100.00
19748;BME280;10032;51.386;12.516;2024-02-23T02:43:17;97685.47;;;11.60;100.00
19748;BME280;10032;51.386;12.516;2024-02-23T02:45:42;97676.47;;;11.51;100.00
19748;BME280;10032;51.386;12.516;2024-02-23T02:48:08;97687.97;;;11.48;100.00
19748;BME280;10032;51.386;12.516;2024-02-23T02:50:34;97684.41;;;11.39;100.00
19748;BME280;10032;51.386;12.516;2024-02-23T02:52:59;97690.97;;;11.38;100.00
19748;BME280;10032;51.386;12.516;2024-02-23T02:55:25;97699.72;;;11.35;100.00
19748;BME280;10032;51.386;12.516;2024-02-23T02:57:50;97704.50;;;11.30;100.00
19748;BME280;10032;51.386;12.516;2024-02-23T03:00:16;97720.56;;;11.26;100.00
19748;BME280;10032;51.386;12.516;2024-02-23T03:02:41;97721.81;;;11.20;100.00
19748;BME280;10032;51.386;12.516;2024-02-23T03:05:07;97723.56;;;11.16;100.00
19748;BME280;10032;51.386;12.516;2024-02-23T03:07:32;97719.72;;;11.09;100.00
19748;BME280;10032;51.386;12.516;2024-02-23T03:09:58;97735.75;;;11.05;100.00
19748;BME280;10032;51.386;12.516;2024-02-23T03:12:23;97740.22;;;11.01;100.00
19748;BME280;10032;51.386;12.516;2024-02-23T03:14:48;97742.94;;;11.01;100.00
19748;BME280;10032;51.386;12.516;2024-02-23T03:17:15;97754.88;;;11.00;100.00
19748;BME280;10032;51.386;12.516;2024-02-23T03:19:40;97750.25;;;11.01;100.00
19748;BME280;10032;51.386;12.516;2024-02-23T03:22:06;97758.69;;;10.99;100.00
19748;BME280;10032;51.386;12.516;2024-02-23T03:24:31;97771.88;;;10.92;100.00
19748;BME280;10032;51.386;12.516;2024-02-23T03:26:57;97787.31;;;10.92;100.00
19748;BME280;10032;51.386;12.516;2024-02-23T03:29:22;97782.53;;;10.89;100.00
19748;BME280;10032;51.386;12.516;2024-02-23T03:31:55;97792.22;;;10.81;100.00
19748;BME280;10032;51.386;12.516;2024-02-23T03:34:20;97808.47;;;10.81;100.00
19748;BME280;10032;51.386;12.516;2024-02-23T03:36:45;97815.72;;;10.72;100.00
19748;BME280;10032;51.386;12.516;2024-02-23T03:39:11;97809.31;;;10.68;100.00
19748;BME280;10032;51.386;12.516;2024-02-23T03:41:37;97819.00;;;10.61;100.00
19748;BME280;10032;51.386;12.516;2024-02-23T03:44:02;97818.41;;;10.50;100.00
19748;BME280;10032;51.386;12.516;2024-02-23T03:46:27;97834.59;;;10.42;100.00
19748;BME280;10032;51.386;12.516;2024-02-23T03:48:53;97842.00;;;10.36;100.00
19748;BME280;10032;51.386;12.516;2024-02-23T03:51:18;97854.16;;;10.25;100.00
19748;BME280;10032;51.386;12.516;2024-02-23T03:53:44;97850.34;;;10.26;100.00
19748;BME280;10032;51.386;12.516;2024-02-23T03:56:09;97872.22;;;10.16;100.00
19748;BME280;10032;51.386;12.516;2024-02-23T03:58:34;97870.41;;;10.12;100.00
19748;BME280;10032;51.386;12.516;2024-02-23T04:01:00;97875.44;;;10.05;100.00
19748;BME280;10032;51.386;12.516;2024-02-23T04:03:26;97878.03;;;9.96;100.00
19748;BME280;10032;51.386;12.516;2024-02-23T04:05:51;97877.59;;;9.89;100.00
19748;BME280;10032;51.386;12.516;2024-02-23T04:08:16;97886.34;;;9.86;100.00
19748;BME280;10032;51.386;12.516;2024-02-23T04:10:42;97894.44;;;9.86;100.00
19748;BME280;10032;51.386;12.516;2024-02-23T04:13:07;97896.66;;;9.84;100.00
19748;BME280;10032;51.386;12.516;2024-02-23T04:15:33;97913.47;;;9.81;100.00
19748;BME280;10032;51.386;12.516;2024-02-23T04:17:58;97921.19;;;9.74;100.00
19748;BME280;10032;51.386;12.516;2024-02-23T04:20:24;97919.06;;;9.71;100.00
19748;BME280;10032;51.386;12.516;2024-02-23T04:22:50;97925.06;;;9.68;100.00
19748;BME280;10032;51.386;12.516;2024-02-23T04:25:15;97917.84;;;9.64;100.00
19748;BME280;10032;51.386;12.516;2024-02-23T04:27:41;97920.94;;;9.57;100.00
19748;BME280;10032;51.386;12.516;2024-02-23T04:30:06;97928.84;;;9.54;100.00
19748;BME280;10032;51.386;12.516;2024-02-23T04:32:32;97933.22;;;9.50;100.00
19748;BME280;10032;51.386;12.516;2024-02-23T04:34:58;97931.44;;;9.45;100.00
19748;BME280;10032;51.386;12.516;2024-02-23T04:37:23;97939.53;;;9.45;100.00
19748;BME280;10032;51.386;12.516;2024-02-23T04:39:49;97930.63;;;9.45;100.00
19748;BME280;10032;51.386;12.516;2024-02-23T04:42:14;97922.00;;;9.43;100.00
19748;BME280;10032;51.386;12.516;2024-02-23T04:44:42;97933.09;;;9.41;100.00
19748;BME280;10032;51.386;12.516;2024-02-23T04:47:08;97927.28;;;9.34;100.00
19748;BME280;10032;51.386;12.516;2024-02-23T04:49:34;97935.41;;;9.34;100.00
19748;BME280;10032;51.386;12.516;2024-02-23T04:51:59;97940.81;;;9.34;100.00
19748;BME280;10032;51.386;12.516;2024-02-23T04:54:25;97953.28;;;9.30;100.00
19748;BME280;10032;51.386;12.516;2024-02-23T04:56:50;97963.59;;;9.28;100.00
19748;BME280;10032;51.386;12.516;2024-02-23T04:59:16;97972.53;;;9.29;100.00
19748;BME280;10032;51.386;12.516;2024-02-23T05:01:41;97967.41;;;9.27;100.00
19748;BME280;10032;51.386;12.516;2024-02-23T05:04:08;97972.38;;;9.20;100.00
19748;BME280;10032;51.386;12.516;2024-02-23T05:06:33;98000.56;;;9.14;100.00
19748;BME280;10032;51.386;12.516;2024-02-23T05:08:58;97995.75;;;9.11;100.00
19748;BME280;10032;51.386;12.516;2024-02-23T05:11:24;97997.94;;;9.09;100.00
19748;BME280;10032;51.386;12.516;2024-02-23T05:13:49;97999.31;;;9.07;100.00
19748;BME280;10032;51.386;12.516;2024-02-23T05:16:15;98002.31;;;9.05;100.00
19748;BME280;10032;51.386;12.516;2024-02-23T05:18:40;97987.19;;;9.04;100.00
19748;BME280;10032;51.386;12.516;2024-02-23T05:21:06;97986.47;;;8.99;100.00
19748;BME280;10032;51.386;12.516;2024-02-23T05:23:32;98006.25;;;8.94;100.00
19748;BME280;10032;51.386;12.516;2024-02-23T05:25:58;98007.28;;;8.98;100.00
19748;BME280;10032;51.386;12.516;2024-02-23T05:28:23;98010.56;;;8.95;100.00
19748;BME280;10032;51.386;12.516;2024-02-23T05:30:48;98020.06;;;8.93;100.00
19748;BME280;10032;51.386;12.516;2024-02-23T05:33:14;98019.47;;;8.96;100.00
19748;BME280;10032;51.386;12.516;2024-02-23T05:35:39;98011.88;;;8.98;100.00
19748;BME280;10032;51.386;12.516;2024-02-23T05:38:05;98027.06;;;8.94;100.00
19748;BME280;10032;51.386;12.516;2024-02-23T05:40:31;98048.44;;;8.90;100.00
19748;BME280;10032;51.386;12.516;2024-02-23T05:42:58;98057.66;;;8.89;100.00
19748;BME280;10032;51.386;12.516;2024-02-23T05:45:23;98080.03;;;8.90;100.00
19748;BME280;10032;51.386;12.516;2024-02-23T05:47:49;98070.91;;;8.86;100.00
19748;BME280;10032;51.386;12.516;2024-02-23T05:50:14;98054.75;;;8.81;100.00
19748;BME280;10032;51.386;12.516;2024-02-23T05:52:40;98063.16;;;8.79;100.00
19748;BME280;10032;51.386;12.516;2024-02-23T05:55:06;98088.53;;;8.78;100.00
19748;BME280;10032;51.386;12.516;2024-02-23T05:57:31;98084.22;;;8.77;100.00
19748;BME280;10032;51.386;12.516;2024-02-23T05:59:57;98080.22;;;8.75;100.00
19748;BME280;10032;51.386;12.516;2024-02-23T06:02:22;98097.22;;;8.75;100.00
19748;BME280;10032;51.386;12.516;2024-02-23T06:04:48;98092.97;;;8.69;100.00
19748;BME280;10032;51.386;12.516;2024-02-23T06:07:14;98099.47;;;8.68;100.00
19748;BME280;10032;51.386;12.516;2024-02-23T06:09:45;98120.75;;;8.70;100.00
19748;BME280;10032;51.386;12.516;2024-02-23T06:12:10;98134.03;;;8.66;100.00
19748;BME280;10032;51.386;12.516;2024-02-23T06:14:36;98113.03;;;8.63;100.00
19748;BME280;10032;51.386;12.516;2024-02-23T06:17:02;98098.44;;;8.64;100.00
19748;BME280;10032;51.386;12.516;2024-02-23T06:19:28;98117.34;;;8.64;100.00
19748;BME280;10032;51.386;12.516;2024-02-23T06:21:54;98144.88;;;8.61;100.00
19748;BME280;10032;51.386;12.516;2024-02-23T06:24:19;98134.63;;;8.63;100.00
19748;BME280;10032;51.386;12.516;2024-02-23T06:26:45;98113.03;;;8.63;100.00
19748;BME280;10032;51.386;12.516;2024-02-23T06:29:11;98134.94;;;8.57;100.00
19748;BME280;10032;51.386;12.516;2024-02-23T06:31:38;98147.56;;;8.61;100.00
19748;BME280;10032;51.386;12.516;2024-02-23T06:34:04;98149.72;;;8.64;100.00
19748;BME280;10032;51.386;12.516;2024-02-23T06:36:30;98143.28;;;8.60;100.00
19748;BME280;10032;51.386;12.516;2024-02-23T06:38:55;98155.94;;;8.60;100.00
19748;BME280;10032;51.386;12.516;2024-02-23T06:41:21;98162.16;;;8.60;100.00
19748;BME280;10032;51.386;12.516;2024-02-23T06:43:46;98151.38;;;8.60;100.00
19748;BME280;10032;51.386;12.516;2024-02-23T06:46:12;98149.72;;;8.64;100.00
19748;BME280;10032;51.386;12.516;2024-02-23T06:48:38;98146.78;;;8.61;100.00
19748;BME280;10032;51.386;12.516;2024-02-23T06:51:04;98147.06;;;8.59;100.00
19748;BME280;10032;51.386;12.516;2024-02-23T06:53:30;98153.56;;;8.58;100.00
19748;BME280;10032;51.386;12.516;2024-02-23T06:55:55;98160.84;;;8.58;100.00
19748;BME280;10032;51.386;12.516;2024-02-23T06:58:21;98168.38;;;8.61;100.00
19748;BME280;10032;51.386;12.516;2024-02-23T07:00:46;98174.84;;;8.60;100.00
19748;BME280;10032;51.386;12.516;2024-02-23T07:03:13;98163.50;;;8.63;100.00
19748;BME280;10032;51.386;12.516;2024-02-23T07:05:39;98153.50;;;8.63;100.00
19748;BME280;10032;51.386;12.516;2024-02-23T07:08:06;98152.47;;;8.59;100.00
19748;BME280;10032;51.386;12.516;2024-02-23T07:10:32;98167.78;;;8.64;100.00
19748;BME280;10032;51.386;12.516;2024-02-23T07:12:57;98171.38;;;8.59;100.00
19748;BME280;10032;51.386;12.516;2024-02-23T07:15:23;98191.31;;;8.63;100.00
19748;BME280;10032;51.386;12.516;2024-02-23T07:17:49;98203.66;;;8.69;100.00
19748;BME280;10032;51.386;12.516;2024-02-23T07:20:15;98234.94;;;8.70;100.00
19748;BME280;10032;51.386;12.516;2024-02-23T07:22:44;98242.41;;;8.78;100.00
19748;BME280;10032;51.386;12.516;2024-02-23T07:25:10;98229.97;;;8.82;100.00
19748;BME280;10032;51.386;12.516;2024-02-23T07:27:35;98228.81;;;8.88;100.00
19748;BME280;10032;51.386;12.516;2024-02-23T07:30:00;98234.81;;;8.85;100.00
19748;BME280;10032;51.386;12.516;2024-02-23T07:32:26;98245.66;;;8.80;100.00
19748;BME280;10032;51.386;12.516;2024-02-23T07:34:55;98246.72;;;8.84;100.00
19748;BME280;10032;51.386;12.516;2024-02-23T07:37:20;98256.97;;;8.82;100.00
19748;BME280;10032;51.386;12.516;2024-02-23T07:39:45;98252.38;;;8.83;100.00
19748;BME280;10032;51.386;12.516;2024-02-23T07:42:11;98260.22;;;8.84;100.00
19748;BME280;10032;51.386;12.516;2024-02-23T07:44:38;98259.13;;;8.85;100.00
19748;BME280;10032;51.386;12.516;2024-02-23T07:47:04;98268.81;;;8.86;100.00
19748;BME280;10032;51.386;12.516;2024-02-23T07:49:29;98278.00;;;8.85;100.00
19748;BME280;10032;51.386;12.516;2024-02-23T07:51:55;98288.00;;;8.85;100.00
19748;BME280;10032;51.386;12.516;2024-02-23T07:54:20;98287.22;;;8.84;100.00
19748;BME280;10032;51.386;12.516;2024-02-23T07:56:46;98284.50;;;8.84;100.00
19748;BME280;10032;51.386;12.516;2024-02-23T07:59:11;98278.28;;;8.84;100.00
19748;BME280;10032;51.386;12.516;2024-02-23T08:01:37;98273.44;;;8.81;100.00
19748;BME280;10032;51.386;12.516;2024-02-23T08:04:02;98265.59;;;8.84;100.00
19748;BME280;10032;51.386;12.516;2024-02-23T08:06:28;98267.78;;;8.82;100.00
19748;BME280;10032;51.386;12.516;2024-02-23T08:08:54;98275.88;;;8.82;100.00
19748;BME280;10032;51.386;12.516;2024-02-23T08:11:20;98281.00;;;8.84;100.00
19748;BME280;10032;51.386;12.516;2024-02-23T08:13:45;98305.00;;;8.85;100.00
19748;BME280;10032;51.386;12.516;2024-02-23T08:16:11;98324.19;;;8.84;100.00
19748;BME280;10032;51.386;12.516;2024-02-23T08:18:36;98327.09;;;8.92;100.00
19748;BME280;10032;51.386;12.516;2024-02-23T08:21:02;98318.72;;;8.94;100.00
19748;BME280;10032;51.386;12.516;2024-02-23T08:23:28;98323.25;;;8.98;100.00
19748;BME280;10032;51.386;12.516;2024-02-23T08:25:55;98315.63;;;9.05;100.00
19748;BME280;10032;51.386;12.516;2024-02-23T08:28:22;98296.66;;;9.10;100.00
19748;BME280;10032;51.386;12.516;2024-02-23T08:30:48;98305.25;;;9.17;100.00
19748;BME280;10032;51.386;12.516;2024-02-23T08:33:14;98310.00;;;9.25;100.00
19748;BME280;10032;51.386;12.516;2024-02-23T08:35:39;98312.88;;;9.34;100.00
19748;BME280;10032;51.386;12.516;2024-02-23T08:38:05;98306.66;;;9.38;100.00
19748;BME280;10032;51.386;12.516;2024-02-23T08:40:30;98314.09;;;9.46;100.00
19748;BME280;10032;51.386;12.516;2024-02-23T08:42:55;98305.38;;;9.54;100.00
19748;BME280;10032;51.386;12.516;2024-02-23T08:45:21;98322.09;;;9.56;99.34
19748;BME280;10032;51.386;12.516;2024-02-23T08:47:46;98321.53;;;9.59;99.31
19748;BME280;10032;51.386;12.516;2024-02-23T08:50:12;98325.56;;;9.62;97.96
19748;BME280;10032;51.386;12.516;2024-02-23T08:52:37;98332.25;;;9.69;97.87
19748;BME280;10032;51.386;12.516;2024-02-23T08:55:03;98334.41;;;9.67;97.18
19748;BME280;10032;51.386;12.516;2024-02-23T08:57:29;98339.72;;;9.77;97.63
19748;BME280;10032;51.386;12.516;2024-02-23T08:59:54;98339.38;;;9.84;96.39
19748;BME280;10032;51.386;12.516;2024-02-23T09:02:23;98352.06;;;9.83;94.86
19748;BME280;10032;51.386;12.516;2024-02-23T09:04:48;98355.44;;;9.75;93.12
19748;BME280;10032;51.386;12.516;2024-02-23T09:07:13;98362.94;;;9.78;92.79
19748;BME280;10032;51.386;12.516;2024-02-23T09:09:39;98377.75;;;9.86;93.44
19748;BME280;10032;51.386;12.516;2024-02-23T09:12:05;98384.28;;;10.03;94.29
19748;BME280;10032;51.386;12.516;2024-02-23T09:14:32;98378.72;;;10.18;94.09
19748;BME280;10032;51.386;12.516;2024-02-23T09:16:58;98373.19;;;10.28;93.42
19748;BME280;10032;51.386;12.516;2024-02-23T09:19:24;98371.44;;;10.37;94.35
19748;BME280;10032;51.386;12.516;2024-02-23T09:21:49;98359.44;;;10.43;92.58
19748;BME280;10032;51.386;12.516;2024-02-23T09:24:15;98359.44;;;10.43;92.27
19748;BME280;10032;51.386;12.516;2024-02-23T09:26:40;98356.81;;;10.38;91.57
19748;BME280;10032;51.386;12.516;2024-02-23T09:29:06;98350.28;;;10.39;91.42
19748;BME280;10032;51.386;12.516;2024-02-23T09:31:32;98365.88;;;10.47;92.03
19748;BME280;10032;51.386;12.516;2024-02-23T09:33:57;98353.72;;;10.45;90.40
19748;BME280;10032;51.386;12.516;2024-02-23T09:36:23;98354.47;;;10.50;90.82
19748;BME280;10032;51.386;12.516;2024-02-23T09:38:50;98341.59;;;10.61;91.09
19748;BME280;10032;51.386;12.516;2024-02-23T09:41:24;98337.56;;;10.77;90.82
19748;BME280;10032;51.386;12.516;2024-02-23T09:43:50;98336.06;;;10.84;90.20
19748;BME280;10032;51.386;12.516;2024-02-23T09:46:16;98339.22;;;10.91;89.84
19748;BME280;10032;51.386;12.516;2024-02-23T09:48:43;98337.88;;;10.89;89.69
19748;BME280;10032;51.386;12.516;2024-02-23T09:51:10;98347.53;;;10.95;89.92
19748;BME280;10032;51.386;12.516;2024-02-23T09:53:37;98353.78;;;10.95;89.12
19748;BME280;10032;51.386;12.516;2024-02-23T09:56:04;98347.03;;;10.93;88.40
19748;BME280;10032;51.386;12.516;2024-02-23T09:58:32;98351.81;;;10.82;87.44
19748;BME280;10032;51.386;12.516;2024-02-23T10:00:58;98352.31;;;10.84;87.68
19748;BME280;10032;51.386;12.516;2024-02-23T10:03:27;98358.03;;;10.83;87.03
19748;BME280;10032;51.386;12.516;2024-02-23T10:05:54;98366.47;;;10.81;86.51
19748;BME280;10032;51.386;12.516;2024-02-23T10:08:19;98363.66;;;10.86;86.19
19748;BME280;10032;51.386;12.516;2024-02-23T10:10:45;98379.91;;;10.86;86.58
19748;BME280;10032;51.386;12.516;2024-02-23T10:13:11;98375.59;;;10.85;85.71
19748;BME280;10032;51.386;12.516;2024-02-23T10:15:37;98379.91;;;10.86;84.76
19748;BME280;10032;51.386;12.516;2024-02-23T10:18:03;98383.78;;;10.99;85.38
19748;BME280;10032;51.386;12.516;2024-02-23T10:20:29;98371.75;;;11.05;85.14
19748;BME280;10032;51.386;12.516;2024-02-23T10:22:54;98374.53;;;11.18;84.52
19748;BME280;10032;51.386;12.516;2024-02-23T10:25:20;98384.47;;;11.23;83.56
19748;BME280;10032;51.386;12.516;2024-02-23T10:27:46;98378.09;;;11.32;84.22
19748;BME280;10032;51.386;12.516;2024-02-23T10:30:13;98382.31;;;11.38;85.11
19748;BME280;10032;51.386;12.516;2024-02-23T10:32:41;98386.91;;;11.38;83.58
19748;BME280;10032;51.386;12.516;2024-02-23T10:35:16;98375.38;;;11.32;82.47
19748;BME280;10032;51.386;12.516;2024-02-23T10:37:48;98375.50;;;11.41;82.86
19748;BME280;10032;51.386;12.516;2024-02-23T10:40:16;98379.91;;;11.50;82.06
19748;BME280;10032;51.386;12.516;2024-02-23T10:42:44;98391.78;;;11.54;82.05
19748;BME280;10032;51.386;12.516;2024-02-23T10:45:20;98398.31;;;11.53;81.70
19748;BME280;10032;51.386;12.516;2024-02-23T10:47:50;98389.94;;;11.50;81.61
19748;BME280;10032;51.386;12.516;2024-02-23T10:50:17;98390.66;;;11.42;80.96
19748;BME280;10032;51.386;12.516;2024-02-23T10:52:45;98384.00;;;11.34;81.46
19748;BME280;10032;51.386;12.516;2024-02-23T10:55:12;98392.34;;;11.38;81.45
19748;BME280;10032;51.386;12.516;2024-02-23T10:57:37;98398.38;;;11.35;81.26
19748;BME280;10032;51.386;12.516;2024-02-23T11:00:04;98398.56;;;11.38;80.63
19748;BME280;10032;51.386;12.516;2024-02-23T11:02:34;98405.53;;;11.44;80.30
19748;BME280;10032;51.386;12.516;2024-02-23T11:05:01;98413.44;;;11.59;79.89
19748;BME280;10032;51.386;12.516;2024-02-23T11:07:29;98419.91;;;11.58;80.32
19748;BME280;10032;51.386;12.516;2024-02-23T11:09:59;98418.53;;;11.61;79.57
19748;BME280;10032;51.386;12.516;2024-02-23T11:12:25;98411.34;;;11.51;79.68
19748;BME280;10032;51.386;12.516;2024-02-23T11:14:51;98409.66;;;11.55;79.73
19748;BME280;10032;51.386;12.516;2024-02-23T11:17:22;98415.16;;;11.50;78.03
19748;BME280;10032;51.386;12.516;2024-02-23T11:19:50;98427.72;;;11.46;77.56
19748;BME280;10032;51.386;12.516;2024-02-23T11:22:30;98429.31;;;11.47;77.40
19748;BME280;10032;51.386;12.516;2024-02-23T11:27:32;98426.50;;;11.52;76.91
19748;BME280;10032;51.386;12.516;2024-02-23T11:30:05;98430.47;;;11.60;78.23
19748;BME280;10032;51.386;12.516;2024-02-23T11:32:38;98430.00;;;11.71;78.20
19748;BME280;10032;51.386;12.516;2024-02-23T11:35:06;98436.47;;;11.75;77.66
19748;BME280;10032;51.386;12.516;2024-02-23T11:37:32;98445.00;;;11.82;77.42
19748;BME280;10032;51.386;12.516;2024-02-23T11:39:59;98433.56;;;11.85;77.96
19748;BME280;10032;51.386;12.516;2024-02-23T11:42:26;98429.75;;;11.86;76.89
19748;BME280;10032;51.386;12.516;2024-02-23T11:44:52;98431.44;;;11.82;77.36
19748;BME280;10032;51.386;12.516;2024-02-23T11:47:19;98424.81;;;11.88;77.62
19748;BME280;10032;51.386;12.516;2024-02-23T11:49:44;98427.63;;;11.83;76.95
19748;BME280;10032;51.386;12.516;2024-02-23T11:52:10;98421.78;;;11.76;76.59
19748;BME280;10032;51.386;12.516;2024-02-23T11:54:35;98427.47;;;11.61;73.74
19748;BME280;10032;51.386;12.516;2024-02-23T11:57:01;98421.91;;;11.53;75.44
19748;BME280;10032;51.386;12.516;2024-02-23T11:59:27;98415.66;;;11.52;74.77
19748;BME280;10032;51.386;12.516;2024-02-23T12:01:52;98413.13;;;11.42;72.55
19748;BME280;10032;51.386;12.516;2024-02-23T12:04:17;98413.00;;;11.34;74.74
19748;BME280;10032;51.386;12.516;2024-02-23T12:06:43;98419.81;;;11.31;74.25
19748;BME280;10032;51.386;12.516;2024-02-23T12:09:11;98415.13;;;11.37;75.08
19748;BME280;10032;51.386;12.516;2024-02-23T12:11:38;98427.66;;;11.33;74.69
19748;BME280;10032;51.386;12.516;2024-02-23T12:14:05;98424.09;;;11.37;75.35
19748;BME280;10032;51.386;12.516;2024-02-23T12:16:34;98423.56;;;11.35;73.48
19748;BME280;10032;51.386;12.516;2024-02-23T12:19:01;98423.94;;;11.29;74.03
19748;BME280;10032;51.386;12.516;2024-02-23T12:21:28;98418.75;;;11.32;72.68
19748;BME280;10032;51.386;12.516;2024-02-23T12:23:53;98416.03;;;11.32;72.75
19748;BME280;10032;51.386;12.516;2024-02-23T12:26:19;98409.88;;;11.27;71.50
19748;BME280;10032;51.386;12.516;2024-02-23T12:28:44;98415.97;;;11.37;73.34
19748;BME280;10032;51.386;12.516;2024-02-23T12:31:11;98415.44;;;11.35;73.70
19748;BME280;10032;51.386;12.516;2024-02-23T12:33:37;98403.34;;;11.28;73.07
19748;BME280;10032;51.386;12.516;2024-02-23T12:36:05;98399.78;;;11.32;73.25
19748;BME280;10032;51.386;12.516;2024-02-23T12:38:31;98408.09;;;11.36;73.49
19748;BME280;10032;51.386;12.516;2024-02-23T12:40:57;98416.25;;;11.36;73.84
19748;BME280;10032;51.386;12.516;2024-02-23T12:43:23;98413.91;;;11.29;72.87